createdAt,value
2018-11-21T00:02:39.935Z,8.63
2018-11-21T00:08:45.558Z,9.88
2018-11-21T00:14:46.089Z,7.58
2018-11-21T00:20:46.544Z,7.87
2018-11-21T00:27:00.367Z,7.72
2018-11-21T00:33:13.051Z,7.05
2018-11-21T00:39:07.551Z,6.35
2018-11-21T00:44:49.952Z,7.37
2018-11-21T00:50:45.473Z,6.85
2018-11-21T00:57:01.195Z,6.67
2018-11-21T01:03:05.665Z,6.15
2018-11-21T01:09:06.465Z,6.90
2018-11-21T01:15:08.963Z,7.15
2018-11-21T01:20:54.693Z,6.42
2018-11-21T01:26:55.961Z,7.53
2018-11-21T01:32:58.495Z,8.58
2018-11-21T01:39:00.133Z,7.03
2018-11-21T01:44:41.546Z,6.78
2018-11-21T01:50:43.050Z,7.03
2018-11-21T01:56:42.652Z,7.35
2018-11-21T02:02:45.178Z,6.80
2018-11-21T02:08:58.233Z,5.67
2018-11-21T02:15:14.660Z,4.47
2018-11-21T02:21:28.361Z,5.53
2018-11-21T02:27:46.140Z,5.47
2018-11-21T02:34:00.747Z,5.53
2018-11-21T02:40:02.391Z,5.33
2018-11-21T02:45:53.866Z,6.70
2018-11-21T02:51:58.790Z,7.12
2018-11-21T02:57:58.870Z,6.62
2018-11-21T03:04:03.408Z,6.20
2018-11-21T03:09:45.075Z,6.53
2018-11-21T03:16:03.797Z,5.55
2018-11-21T03:22:17.864Z,5.92
2018-11-21T03:28:35.925Z,6.50
2018-11-21T03:34:49.893Z,6.62
2018-11-21T03:40:45.428Z,7.50
2018-11-21T03:46:33.912Z,8.50
2018-11-21T03:52:47.555Z,7.80
2018-11-21T03:59:00.321Z,6.30
2018-11-21T04:05:08.096Z,7.87
2018-11-21T04:11:08.514Z,6.80
2018-11-21T04:17:09.022Z,7.50
2018-11-21T04:23:07.633Z,9.10
2018-11-21T04:29:11.148Z,9.25
2018-11-21T04:35:11.803Z,10.05
2018-11-21T04:41:12.375Z,9.75
2018-11-21T04:47:00.965Z,11.33
2018-11-21T04:53:02.296Z,10.70
2018-11-21T04:59:02.308Z,11.53
2018-11-21T05:05:06.647Z,10.80
2018-11-21T05:10:49.151Z,10.63
2018-11-21T05:16:49.533Z,9.40
2018-11-21T05:22:54.214Z,9.83
2018-11-21T05:28:57.777Z,7.58
2018-11-21T05:34:59.679Z,9.30
2018-11-21T05:40:58.881Z,7.47
2018-11-21T05:46:35.251Z,8.33
2018-11-21T05:52:37.838Z,10.53
2018-11-21T05:58:37.680Z,12.85
2018-11-21T06:04:18.120Z,11.93
2018-11-21T06:09:58.924Z,12.65
2018-11-21T06:16:01.006Z,12.25
2018-11-21T06:22:02.276Z,12.90
2018-11-21T06:28:03.062Z,16.00
2018-11-21T06:34:02.402Z,11.22
2018-11-21T06:40:00.953Z,11.20
2018-11-21T06:46:05.564Z,16.05
2018-11-21T06:52:08.157Z,14.65
2018-11-21T06:58:08.806Z,9.88
2018-11-21T07:04:09.359Z,9.80
2018-11-21T07:10:17.325Z,10.72
2018-11-21T07:16:17.705Z,10.53
2018-11-21T07:22:19.092Z,9.18
2018-11-21T07:28:21.877Z,9.60
2018-11-21T07:34:21.655Z,8.05
2018-11-21T07:40:21.813Z,9.45
2018-11-21T07:46:10.292Z,9.98
2018-11-21T07:51:48.552Z,8.90
2018-11-21T07:57:52.215Z,8.95
2018-11-21T08:03:54.777Z,8.93
2018-11-21T08:10:15.646Z,7.72
2018-11-21T08:13:16.740Z,9.18
2018-11-21T08:19:49.287Z,9.95
2018-11-21T08:26:06.365Z,9.33
2018-11-21T08:32:07.250Z,9.50
2018-11-21T08:38:07.125Z,11.90
2018-11-21T08:44:09.714Z,14.43
2018-11-21T08:49:53.035Z,13.38
2018-11-21T08:55:41.561Z,13.72
2018-11-21T09:01:24.018Z,15.25
2018-11-21T09:07:26.925Z,12.68
2018-11-21T09:13:11.835Z,15.40
2018-11-21T09:19:13.505Z,12.95
2018-11-21T09:25:15.132Z,12.18
2018-11-21T09:31:00.478Z,15.08
2018-11-21T09:36:42.914Z,14.25
2018-11-21T09:42:46.533Z,17.67
2018-11-21T09:48:47.089Z,18.17
2018-11-21T09:54:23.367Z,17.40
2018-11-21T10:00:46.228Z,18.48
2018-11-21T10:06:46.799Z,18.75
2018-11-21T10:12:50.403Z,21.55
2018-11-21T10:18:56.705Z,23.60
2018-11-21T10:25:10.733Z,20.82
2018-11-21T10:31:26.276Z,16.15
2018-11-21T10:37:41.372Z,16.23
2018-11-21T10:43:53.803Z,19.85
2018-11-21T10:49:55.431Z,21.30
2018-11-21T10:55:44.874Z,21.87
2018-11-21T11:02:03.660Z,19.30
2018-11-21T11:08:41.582Z,21.50
2018-11-21T11:15:08.492Z,20.37
2018-11-21T11:21:51.534Z,19.50
2018-11-21T11:28:01.457Z,17.65
2018-11-21T11:34:19.531Z,16.87
2018-11-21T11:40:47.744Z,22.58
2018-11-21T11:47:12.838Z,19.23
2018-11-21T11:53:12.023Z,22.27
2018-11-21T11:59:11.650Z,18.60
2018-11-21T12:05:47.538Z,18.80
2018-11-21T12:12:18.544Z,17.17
2018-11-21T12:18:48.322Z,17.15
2018-11-21T12:25:23.243Z,18.70
2018-11-21T12:31:56.151Z,15.60
2018-11-21T12:38:30.014Z,16.05
2018-11-21T12:44:54.831Z,11.20
2018-11-21T12:51:08.392Z,15.30
2018-11-21T13:01:12.524Z,20.27
2018-11-21T13:07:00.958Z,15.32
2018-11-21T13:13:01.549Z,11.73
2018-11-21T13:19:22.228Z,9.80
2018-11-21T13:25:44.075Z,12.78
2018-11-21T13:32:22.600Z,12.30
2018-11-21T13:38:45.749Z,10.98
2018-11-21T13:45:08.623Z,13.40
2018-11-21T13:51:35.369Z,14.53
2018-11-21T13:57:38.970Z,12.47
2018-11-21T14:03:40.418Z,14.93
2018-11-21T14:09:42.164Z,14.75
2018-11-21T14:15:46.646Z,15.40
2018-11-21T14:21:29.136Z,14.00
2018-11-21T14:27:30.709Z,15.50
2018-11-21T14:33:32.336Z,18.75
2018-11-21T14:39:36.040Z,27.85
2018-11-21T14:45:20.350Z,30.97
2018-11-21T14:51:33.779Z,14.98
2018-11-21T14:57:46.742Z,13.20
2018-11-21T15:03:37.954Z,12.53
2018-11-21T15:09:51.984Z,9.43
2018-11-21T15:15:53.501Z,7.60
2018-11-21T15:21:54.051Z,8.13
2018-11-21T15:27:56.666Z,7.87
2018-11-21T15:33:57.317Z,8.33
2018-11-21T15:39:59.826Z,6.55
2018-11-21T15:46:02.405Z,5.42
2018-11-21T15:52:06.099Z,5.87
2018-11-21T15:58:07.681Z,7.37
2018-11-21T16:03:58.077Z,11.22
2018-11-21T16:10:01.658Z,12.03
2018-11-21T16:16:03.397Z,13.68
2018-11-21T16:22:07.849Z,14.18
2018-11-21T16:28:08.596Z,16.70
2018-11-21T16:34:16.058Z,20.88
2018-11-21T16:40:30.766Z,17.73
2018-11-21T16:46:44.474Z,16.42
2018-11-21T16:52:57.159Z,15.38
2018-11-21T17:02:37.732Z,9.25
2018-11-21T17:08:40.229Z,6.70
2018-11-21T17:14:53.188Z,7.67
2018-11-21T17:21:08.976Z,10.72
2018-11-21T17:27:23.684Z,13.65
2018-11-21T17:33:18.455Z,7.87
2018-11-21T17:39:19.706Z,9.88
2018-11-21T17:45:21.287Z,12.63
2018-11-21T17:51:26.593Z,10.18
2018-11-21T17:57:27.976Z,9.58
2018-11-21T18:03:03.094Z,12.55
2018-11-21T18:09:04.377Z,10.32
2018-11-21T18:15:06.041Z,14.43
2018-11-21T18:21:06.579Z,9.63
2018-11-21T18:27:11.066Z,7.28
2018-11-21T18:33:14.736Z,7.70
2018-11-21T18:39:15.619Z,7.10
2018-11-21T18:45:19.788Z,5.05
2018-11-21T18:51:33.345Z,4.55
2018-11-21T18:58:42.868Z,5.20
2018-11-21T19:04:32.328Z,5.53
2018-11-21T19:10:35.996Z,5.83
2018-11-21T19:16:39.831Z,6.42
2018-11-21T19:22:39.461Z,5.83
2018-11-21T19:28:43.631Z,5.75
2018-11-21T19:34:47.309Z,6.20
2018-11-21T19:40:48.190Z,8.25
2018-11-21T19:46:51.469Z,10.58
2018-11-21T19:53:06.178Z,9.65
2018-11-21T19:59:20.264Z,11.18
2018-11-21T20:05:11.699Z,8.48
2018-11-21T20:11:24.464Z,8.03
2018-11-21T20:17:37.611Z,10.08
2018-11-21T20:23:52.775Z,10.13
2018-11-21T20:29:54.716Z,9.30
2018-11-21T20:35:54.525Z,8.75
2018-11-21T20:41:54.219Z,9.48
2018-11-21T20:47:55.748Z,10.00
2018-11-21T20:53:57.104Z,9.53
2018-11-21T21:00:17.090Z,7.97
2018-11-21T21:06:16.649Z,20.00
2018-11-21T21:12:30.346Z,10.20
2018-11-21T21:18:32.051Z,10.15
2018-11-21T21:24:34.516Z,10.23
2018-11-21T21:30:35.850Z,9.58
2018-11-21T21:36:18.489Z,8.48
2018-11-21T21:42:21.079Z,9.78
2018-11-21T21:48:20.637Z,10.75
2018-11-21T21:54:21.208Z,10.25
2018-11-21T22:00:22.791Z,8.68
2018-11-21T22:05:59.119Z,8.98
2018-11-21T22:12:00.067Z,9.53
2018-11-21T22:18:05.308Z,7.87
2018-11-21T22:24:06.955Z,10.30
2018-11-21T22:30:07.461Z,9.55
2018-11-21T22:35:58.309Z,9.43
2018-11-21T22:41:55.756Z,9.23
2018-11-21T22:47:56.042Z,7.45
2018-11-21T22:54:00.370Z,6.80
2018-11-21T22:59:43.182Z,7.25
2018-11-21T23:05:37.747Z,6.00
2018-11-21T23:11:48.287Z,5.60
2018-11-21T23:18:01.918Z,5.95
2018-11-21T23:24:15.624Z,6.80
2018-11-21T23:30:28.376Z,7.20
2018-11-21T23:36:30.896Z,9.60
2018-11-21T23:42:32.546Z,9.80
2018-11-21T23:48:33.047Z,7.47
2018-11-21T23:54:33.922Z,8.75
